createdAt,value
2019-02-21T00:00:02.269Z,1.70
2019-02-21T00:02:33.485Z,1.90
2019-02-21T00:05:04.294Z,2.10
2019-02-21T00:07:33.912Z,2.00
2019-02-21T00:10:03.554Z,1.80
2019-02-21T00:12:33.216Z,1.70
2019-02-21T00:15:02.813Z,2.00
2019-02-21T00:17:34.094Z,1.83
2019-02-21T00:20:04.544Z,1.90
2019-02-21T00:22:34.170Z,1.93
2019-02-21T00:25:03.704Z,2.13
2019-02-21T00:27:33.366Z,1.70
2019-02-21T00:30:03.031Z,2.07
2019-02-21T00:32:32.686Z,1.80
2019-02-21T00:35:02.304Z,2.30
2019-02-21T00:37:31.934Z,2.10
2019-02-21T00:40:01.586Z,2.30
2019-02-21T00:42:31.185Z,2.30
2019-02-21T00:45:00.799Z,2.00
2019-02-21T00:47:30.461Z,1.93
2019-02-21T00:50:00.089Z,2.03
2019-02-21T00:52:31.449Z,1.60
2019-02-21T00:55:01.154Z,1.80
2019-02-21T00:57:30.769Z,2.00
2019-02-21T01:00:00.365Z,2.20
2019-02-21T01:02:29.973Z,2.00
2019-02-21T01:04:59.600Z,1.80
2019-02-21T01:07:29.485Z,1.97
2019-02-21T01:09:59.090Z,1.60
2019-02-21T01:12:28.624Z,2.00
2019-02-21T01:14:58.251Z,1.80
2019-02-21T01:17:27.857Z,2.23
2019-02-21T01:19:57.475Z,1.73
2019-02-21T01:22:27.034Z,2.30
2019-02-21T01:24:59.344Z,2.07
2019-02-21T01:27:28.977Z,1.83
2019-02-21T01:29:58.585Z,2.23
2019-02-21T01:32:28.188Z,1.80
2019-02-21T01:34:57.775Z,2.10
2019-02-21T01:37:27.349Z,2.00
2019-02-21T01:39:56.964Z,2.00
2019-02-21T01:42:26.564Z,1.73
2019-02-21T01:44:56.164Z,1.93
2019-02-21T01:47:25.758Z,1.97
2019-02-21T01:49:55.381Z,1.90
2019-02-21T01:52:25.026Z,1.70
2019-02-21T01:54:54.727Z,2.03
2019-02-21T01:57:24.370Z,1.70
2019-02-21T01:59:53.921Z,2.30
2019-02-21T02:02:23.573Z,2.10
2019-02-21T02:04:53.152Z,1.90
2019-02-21T02:07:22.747Z,2.00
2019-02-21T02:09:52.385Z,1.80
2019-02-21T02:12:21.976Z,2.03
2019-02-21T02:14:53.699Z,1.60
2019-02-21T02:17:23.305Z,1.83
2019-02-21T02:19:52.885Z,2.00
2019-02-21T02:22:23.411Z,1.57
2019-02-21T02:24:52.952Z,1.80
2019-02-21T02:27:22.589Z,2.03
2019-02-21T02:29:52.161Z,1.53
2019-02-21T02:32:21.801Z,1.97
2019-02-21T02:34:51.421Z,1.97
2019-02-21T02:37:20.997Z,1.73
2019-02-21T02:39:50.537Z,1.87
2019-02-21T02:42:20.177Z,2.00
2019-02-21T02:44:49.756Z,1.67
2019-02-21T02:47:19.319Z,2.50
2019-02-21T02:49:48.939Z,2.00
2019-02-21T02:52:18.528Z,2.60
2019-02-21T02:54:48.104Z,1.90
2019-02-21T02:57:17.664Z,1.97
2019-02-21T02:59:47.276Z,2.30
2019-02-21T03:02:16.847Z,2.23
2019-02-21T03:04:46.486Z,1.70
2019-02-21T03:07:16.131Z,2.27
2019-02-21T03:09:45.709Z,2.23
2019-02-21T03:12:15.284Z,2.27
2019-02-21T03:14:46.524Z,2.27
2019-02-21T03:17:16.139Z,2.10
2019-02-21T03:19:45.730Z,2.63
2019-02-21T03:22:15.323Z,2.40
2019-02-21T03:24:44.875Z,2.00
2019-02-21T03:27:14.480Z,1.93
2019-02-21T03:29:44.094Z,2.30
2019-02-21T03:32:13.676Z,2.27
2019-02-21T03:34:43.318Z,2.10
2019-02-21T03:37:14.536Z,2.30
2019-02-21T03:39:44.100Z,2.30
2019-02-21T03:42:13.689Z,2.67
2019-02-21T03:44:43.337Z,2.17
2019-02-21T03:47:12.933Z,2.47
2019-02-21T03:49:42.551Z,2.43
2019-02-21T03:52:12.087Z,2.50
2019-02-21T03:54:41.705Z,2.20
2019-02-21T03:57:11.289Z,2.33
2019-02-21T03:59:41.610Z,2.00
2019-02-21T04:02:11.173Z,2.50
2019-02-21T04:04:40.781Z,1.87
2019-02-21T04:07:10.547Z,2.17
2019-02-21T04:09:40.155Z,2.53
2019-02-21T04:12:09.806Z,2.10
2019-02-21T04:14:39.587Z,2.20
2019-02-21T04:17:09.186Z,2.83
2019-02-21T04:19:38.806Z,2.40
2019-02-21T04:22:08.468Z,2.60
2019-02-21T04:24:38.083Z,1.97
2019-02-21T04:27:07.654Z,2.30
2019-02-21T04:29:37.258Z,2.70
2019-02-21T04:32:16.654Z,2.60
2019-02-21T04:34:38.128Z,2.37
2019-02-21T04:37:07.738Z,2.50
2019-02-21T04:39:37.358Z,2.80
2019-02-21T04:42:06.971Z,2.47
2019-02-21T04:44:37.246Z,2.10
2019-02-21T04:47:06.871Z,2.40
2019-02-21T04:49:36.492Z,2.37
2019-02-21T04:52:06.062Z,2.60
2019-02-21T04:54:35.634Z,2.07
2019-02-21T04:57:05.227Z,2.40
2019-02-21T04:59:34.850Z,2.50
2019-02-21T05:02:04.459Z,2.50
2019-02-21T05:04:34.044Z,2.47
2019-02-21T05:07:03.654Z,2.40
2019-02-21T05:09:33.240Z,2.50
2019-02-21T05:12:02.874Z,2.40
2019-02-21T05:14:32.515Z,2.37
2019-02-21T05:17:02.098Z,2.10
2019-02-21T05:19:31.689Z,1.73
2019-02-21T05:22:01.277Z,2.73
2019-02-21T05:24:30.861Z,2.40
2019-02-21T05:27:25.797Z,2.40
2019-02-21T05:29:55.416Z,3.10
2019-02-21T05:32:48.464Z,2.37
2019-02-21T05:35:40.303Z,2.83
2019-02-21T05:38:21.150Z,3.20
2019-02-21T05:41:04.810Z,2.93
2019-02-21T05:43:56.217Z,2.90
2019-02-21T05:46:44.883Z,2.77
2019-02-21T05:49:24.333Z,2.37
2019-02-21T05:52:05.286Z,2.67
2019-02-21T05:54:44.453Z,2.60
2019-02-21T05:57:48.306Z,3.00
2019-02-21T06:00:46.233Z,3.00
2019-02-21T06:03:36.128Z,2.77
2019-02-21T06:06:28.426Z,2.80
2019-02-21T06:09:13.119Z,2.50
2019-02-21T06:11:52.780Z,2.83
2019-02-21T06:14:32.406Z,3.10
2019-02-21T06:17:34.232Z,2.60
2019-02-21T06:20:14.528Z,3.23
2019-02-21T06:23:02.097Z,2.87
2019-02-21T06:25:59.148Z,3.40
2019-02-21T06:28:31.782Z,2.53
2019-02-21T06:31:04.424Z,2.80
2019-02-21T06:33:34.026Z,2.60
2019-02-21T06:36:03.599Z,2.80
2019-02-21T06:38:33.797Z,3.10
2019-02-21T06:41:03.955Z,3.30
2019-02-21T06:43:33.596Z,3.03
2019-02-21T06:46:03.198Z,2.77
2019-02-21T06:48:34.862Z,2.93
2019-02-21T06:51:04.058Z,2.90
2019-02-21T06:53:33.653Z,2.67
2019-02-21T06:56:03.212Z,3.07
2019-02-21T06:58:32.859Z,2.77
2019-02-21T07:01:02.468Z,2.47
2019-02-21T07:03:32.077Z,2.73
2019-02-21T07:06:01.718Z,3.00
2019-02-21T07:08:31.261Z,2.37
2019-02-21T07:11:06.335Z,2.97
2019-02-21T07:13:32.194Z,2.40
2019-02-21T07:16:01.818Z,2.73
2019-02-21T07:18:31.394Z,3.00
2019-02-21T07:21:00.953Z,3.17
2019-02-21T07:23:42.590Z,3.00
2019-02-21T07:26:10.647Z,3.57
2019-02-21T07:28:41.709Z,3.03
2019-02-21T07:31:11.531Z,2.93
2019-02-21T07:33:41.228Z,3.53
2019-02-21T07:36:11.157Z,3.20
2019-02-21T07:38:42.241Z,3.17
2019-02-21T07:41:11.925Z,3.07
2019-02-21T07:43:41.531Z,3.17
2019-02-21T07:46:11.128Z,3.40
2019-02-21T07:48:40.689Z,2.93
2019-02-21T07:51:10.306Z,3.30
2019-02-21T07:53:39.894Z,2.83
2019-02-21T07:56:09.558Z,3.03
2019-02-21T07:58:39.715Z,3.13
2019-02-21T08:01:09.867Z,2.60
2019-02-21T08:03:57.461Z,2.90
2019-02-21T08:06:45.225Z,2.40
2019-02-21T08:09:32.894Z,2.83
2019-02-21T08:12:23.094Z,2.97
2019-02-21T08:15:11.920Z,3.40
2019-02-21T08:17:59.308Z,2.87
2019-02-21T08:20:47.069Z,3.17
2019-02-21T08:23:34.618Z,2.97
2019-02-21T08:26:22.359Z,2.90
2019-02-21T08:29:09.620Z,3.03
2019-02-21T08:31:57.301Z,2.70
2019-02-21T08:34:44.597Z,2.60
2019-02-21T08:37:32.086Z,2.80
2019-02-21T08:40:19.824Z,3.13
2019-02-21T08:43:07.376Z,3.07
2019-02-21T08:45:57.573Z,2.90
2019-02-21T08:48:47.631Z,2.97
2019-02-21T08:51:34.020Z,3.27
2019-02-21T08:54:21.801Z,2.97
2019-02-21T08:57:09.319Z,3.20
2019-02-21T08:59:56.853Z,3.00
2019-02-21T09:02:44.453Z,3.17
2019-02-21T09:05:31.791Z,3.47
2019-02-21T09:08:19.454Z,2.73
2019-02-21T09:11:07.109Z,3.23
2019-02-21T09:13:55.859Z,2.93
2019-02-21T09:16:43.907Z,2.77
2019-02-21T09:19:31.271Z,3.20
2019-02-21T09:22:18.942Z,2.67
2019-02-21T09:25:06.555Z,3.70
2019-02-21T09:27:54.117Z,2.93
2019-02-21T09:30:41.632Z,3.33
2019-02-21T09:33:29.030Z,2.90
2019-02-21T09:36:16.756Z,3.20
2019-02-21T09:39:04.136Z,3.10
2019-02-21T09:41:53.231Z,3.33
2019-02-21T09:44:40.865Z,3.27
2019-02-21T09:47:30.865Z,2.87
2019-02-21T09:50:17.526Z,3.47
2019-02-21T09:53:06.132Z,2.77
2019-02-21T09:55:54.089Z,3.07
2019-02-21T09:58:41.562Z,3.23
2019-02-21T10:01:29.218Z,3.00
2019-02-21T10:04:16.822Z,3.00
2019-02-21T10:07:04.457Z,2.90
2019-02-21T10:09:53.094Z,3.00
2019-02-21T10:12:40.470Z,2.90
2019-02-21T10:15:31.527Z,2.77
2019-02-21T10:18:19.544Z,2.73
2019-02-21T10:21:06.860Z,3.17
2019-02-21T10:23:56.576Z,2.90
2019-02-21T10:26:43.746Z,3.07
2019-02-21T10:29:31.041Z,2.73
2019-02-21T10:32:00.615Z,3.37
2019-02-21T10:34:30.233Z,3.17
2019-02-21T10:36:59.907Z,3.17
2019-02-21T10:39:29.583Z,3.40
2019-02-21T10:41:59.188Z,3.20
2019-02-21T10:44:30.123Z,2.63
2019-02-21T10:46:59.781Z,2.83
2019-02-21T10:49:29.424Z,3.37
2019-02-21T10:51:59.062Z,3.00
2019-02-21T10:54:28.691Z,2.97
2019-02-21T10:56:58.331Z,3.53
2019-02-21T10:59:29.550Z,3.00
2019-02-21T11:01:59.126Z,3.30
2019-02-21T11:04:30.398Z,3.30
2019-02-21T11:06:59.972Z,2.73
2019-02-21T11:09:29.566Z,3.13
2019-02-21T11:11:59.154Z,3.80
2019-02-21T11:14:28.799Z,3.10
2019-02-21T11:16:58.396Z,3.30
2019-02-21T11:19:27.993Z,2.70
2019-02-21T11:21:57.571Z,3.10
2019-02-21T11:24:27.230Z,3.23
2019-02-21T11:26:56.784Z,3.17
2019-02-21T11:29:26.381Z,3.23
2019-02-21T11:31:55.970Z,2.97
2019-02-21T11:34:25.619Z,2.43
2019-02-21T11:36:55.228Z,3.13
2019-02-21T11:39:24.903Z,3.23
2019-02-21T11:41:54.514Z,2.77
2019-02-21T11:44:24.138Z,3.13
2019-02-21T11:46:53.717Z,3.23
2019-02-21T11:49:23.397Z,3.37
2019-02-21T11:51:53.721Z,3.47
2019-02-21T11:54:27.023Z,2.90
2019-02-21T11:56:54.637Z,3.07
2019-02-21T11:59:24.257Z,2.90
2019-02-21T12:01:54.001Z,3.07
2019-02-21T12:04:24.501Z,3.10
2019-02-21T12:06:54.687Z,3.17
2019-02-21T12:09:24.292Z,3.20
2019-02-21T12:11:53.899Z,3.40
2019-02-21T12:14:23.452Z,2.90
2019-02-21T12:16:53.080Z,2.80
2019-02-21T12:19:22.676Z,3.27
2019-02-21T12:21:59.063Z,3.27
2019-02-21T12:24:23.583Z,3.13
2019-02-21T12:26:53.239Z,3.13
2019-02-21T12:29:22.929Z,2.77
2019-02-21T12:31:52.550Z,2.63
2019-02-21T12:34:22.138Z,3.03
2019-02-21T12:36:51.683Z,3.23
2019-02-21T12:39:21.313Z,3.47
2019-02-21T12:41:50.914Z,3.43
2019-02-21T12:44:20.633Z,3.20
2019-02-21T12:46:50.245Z,2.80
2019-02-21T12:49:21.429Z,3.10
2019-02-21T12:51:51.072Z,3.00
2019-02-21T12:54:20.694Z,3.10
2019-02-21T12:56:50.277Z,3.20
2019-02-21T12:59:19.926Z,2.73
2019-02-21T13:01:49.510Z,2.80
2019-02-21T13:04:19.133Z,2.77
2019-02-21T13:06:48.785Z,2.83
2019-02-21T13:09:18.365Z,3.00
2019-02-21T13:11:47.939Z,3.20
2019-02-21T13:14:17.521Z,3.03
2019-02-21T13:16:47.115Z,3.17
2019-02-21T13:19:16.675Z,3.57
2019-02-21T13:21:46.293Z,2.87
2019-02-21T13:24:15.948Z,3.20
2019-02-21T13:26:45.541Z,3.47
2019-02-21T13:29:15.149Z,3.07
2019-02-21T13:31:44.813Z,2.50
2019-02-21T13:34:14.427Z,3.00
2019-02-21T13:36:45.302Z,3.60
2019-02-21T13:39:14.901Z,2.80
2019-02-21T13:41:44.489Z,2.77
2019-02-21T13:44:14.070Z,2.87
2019-02-21T13:46:43.649Z,3.37
2019-02-21T13:49:13.272Z,2.73
2019-02-21T13:51:49.893Z,3.23
2019-02-21T13:54:19.508Z,3.50
2019-02-21T13:56:49.117Z,3.00
2019-02-21T13:59:18.729Z,3.47
2019-02-21T14:01:48.333Z,3.50
2019-02-21T14:04:18.037Z,2.83
2019-02-21T14:06:49.350Z,3.50
2019-02-21T14:09:18.937Z,3.03
2019-02-21T14:11:48.513Z,3.00
2019-02-21T14:14:18.117Z,3.07
2019-02-21T14:16:47.705Z,2.90
2019-02-21T14:19:17.314Z,3.07
2019-02-21T14:21:46.895Z,3.87
2019-02-21T14:24:16.488Z,3.23
2019-02-21T14:26:46.077Z,3.63
2019-02-21T14:29:15.843Z,3.43
2019-02-21T14:31:45.421Z,2.90
2019-02-21T14:34:15.334Z,3.17
2019-02-21T14:36:44.935Z,3.27
2019-02-21T14:39:14.617Z,3.37
2019-02-21T14:41:44.178Z,3.50
2019-02-21T14:44:13.841Z,3.80
2019-02-21T14:46:43.417Z,3.87
2019-02-21T14:49:13.112Z,3.60
2019-02-21T14:51:42.775Z,3.97
2019-02-21T14:54:12.396Z,3.57
2019-02-21T14:56:41.997Z,3.43
2019-02-21T14:59:11.686Z,3.53
2019-02-21T15:01:41.288Z,3.63
2019-02-21T15:04:10.874Z,3.90
2019-02-21T15:06:40.469Z,3.10
2019-02-21T15:09:11.701Z,3.07
2019-02-21T15:11:41.362Z,3.30
2019-02-21T15:14:12.599Z,2.90
2019-02-21T15:16:42.262Z,3.50
2019-02-21T15:19:11.874Z,3.60
2019-02-21T15:21:41.567Z,3.30
2019-02-21T15:24:13.011Z,2.93
2019-02-21T15:26:42.509Z,3.50
2019-02-21T15:29:12.119Z,3.57
2019-02-21T15:31:41.698Z,3.50
2019-02-21T15:34:12.161Z,3.73
2019-02-21T15:36:42.609Z,3.67
2019-02-21T15:39:12.216Z,2.87
2019-02-21T15:41:41.802Z,3.67
2019-02-21T15:44:11.398Z,3.43
2019-02-21T15:46:41.007Z,3.00
2019-02-21T15:49:10.614Z,3.40
2019-02-21T15:51:40.235Z,3.03
2019-02-21T15:54:12.325Z,3.00
2019-02-21T15:56:42.706Z,3.80
2019-02-21T15:59:13.738Z,3.60
2019-02-21T16:01:47.510Z,3.20
2019-02-21T16:04:17.198Z,3.13
2019-02-21T16:06:51.741Z,3.37
2019-02-21T16:09:18.798Z,3.30
2019-02-21T16:11:48.416Z,3.10
2019-02-21T16:14:18.024Z,3.57
2019-02-21T16:16:47.606Z,2.97
2019-02-21T16:19:17.284Z,3.20
2019-02-21T16:22:05.061Z,3.40
2019-02-21T16:24:34.752Z,3.20
2019-02-21T16:27:06.509Z,3.33
2019-02-21T16:29:36.163Z,3.23
2019-02-21T16:32:05.763Z,3.00
2019-02-21T16:34:35.375Z,2.87
2019-02-21T16:37:04.962Z,2.87
2019-02-21T16:39:34.568Z,3.87
2019-02-21T16:42:04.236Z,3.10
2019-02-21T16:44:33.853Z,3.47
2019-02-21T16:47:05.657Z,2.93
2019-02-21T16:49:34.812Z,3.60
2019-02-21T16:52:04.513Z,3.10
2019-02-21T16:54:34.534Z,2.67
2019-02-21T16:57:04.195Z,3.47
2019-02-21T16:59:33.822Z,3.17
2019-02-21T17:02:03.452Z,3.37
2019-02-21T17:04:34.638Z,2.80
2019-02-21T17:07:13.529Z,3.60
2019-02-21T17:09:36.516Z,3.27
2019-02-21T17:12:06.084Z,3.60
2019-02-21T17:14:35.789Z,2.90
2019-02-21T17:17:05.374Z,3.40
2019-02-21T17:19:36.676Z,3.20
2019-02-21T17:22:06.359Z,2.93
2019-02-21T17:24:35.956Z,2.90
2019-02-21T17:27:05.622Z,3.50
2019-02-21T17:29:35.224Z,3.50
2019-02-21T17:32:04.818Z,3.07
2019-02-21T17:34:34.435Z,3.43
2019-02-21T17:37:04.044Z,2.90
2019-02-21T17:39:33.678Z,3.00
2019-02-21T17:42:03.270Z,3.27
2019-02-21T17:44:32.845Z,3.00
2019-02-21T17:47:02.414Z,3.00
2019-02-21T17:49:31.989Z,2.77
2019-02-21T17:52:03.268Z,3.17
2019-02-21T17:54:32.922Z,3.00
2019-02-21T17:57:02.697Z,3.67
2019-02-21T17:59:32.315Z,3.27
2019-02-21T18:02:01.921Z,2.83
2019-02-21T18:04:31.597Z,2.93
2019-02-21T18:07:01.165Z,3.30
2019-02-21T18:09:30.764Z,3.20
2019-02-21T18:12:00.349Z,3.50
2019-02-21T18:14:29.957Z,2.63
2019-02-21T18:16:59.542Z,3.00
2019-02-21T18:19:29.125Z,2.93
2019-02-21T18:21:58.723Z,2.83
2019-02-21T18:24:28.329Z,3.13
2019-02-21T18:26:57.950Z,3.20
2019-02-21T18:29:29.149Z,2.90
2019-02-21T18:32:00.397Z,2.50
2019-02-21T18:34:30.019Z,2.97
2019-02-21T18:36:59.611Z,2.60
2019-02-21T18:39:29.196Z,2.93
2019-02-21T18:41:58.848Z,2.77
2019-02-21T18:44:28.520Z,3.43
2019-02-21T18:46:58.056Z,2.80
2019-02-21T18:49:27.760Z,2.93
2019-02-21T18:51:57.359Z,2.60
2019-02-21T18:54:26.981Z,2.73
2019-02-21T18:56:56.578Z,2.77
2019-02-21T18:59:31.818Z,3.30
2019-02-21T19:01:57.552Z,2.77
2019-02-21T19:04:27.136Z,2.70
2019-02-21T19:06:56.756Z,2.97
2019-02-21T19:09:26.354Z,3.60
2019-02-21T19:11:55.974Z,2.63
2019-02-21T19:14:25.591Z,3.40
2019-02-21T19:16:55.279Z,2.77
2019-02-21T19:19:24.901Z,3.30
2019-02-21T19:21:54.507Z,3.13
2019-02-21T19:24:24.179Z,3.13
2019-02-21T19:26:53.839Z,2.60
2019-02-21T19:29:23.447Z,2.77
2019-02-21T19:31:53.125Z,2.70
2019-02-21T19:34:22.709Z,3.17
2019-02-21T19:36:52.349Z,3.10
2019-02-21T19:39:21.933Z,2.70
2019-02-21T19:41:51.563Z,2.97
2019-02-21T19:44:21.165Z,2.47
2019-02-21T19:46:50.769Z,2.57
2019-02-21T19:49:20.341Z,3.20
2019-02-21T19:51:49.995Z,2.80
2019-02-21T19:54:19.610Z,2.63
2019-02-21T19:56:49.241Z,3.07
2019-02-21T19:59:18.867Z,2.93
2019-02-21T20:01:48.585Z,2.53
2019-02-21T20:04:18.208Z,3.27
2019-02-21T20:06:47.892Z,2.53
2019-02-21T20:09:18.502Z,2.57
2019-02-21T20:11:48.154Z,2.93
2019-02-21T20:14:17.890Z,3.07
2019-02-21T20:16:48.420Z,2.70
2019-02-21T20:19:18.100Z,2.77
2019-02-21T20:21:47.842Z,2.63
2019-02-21T20:24:17.462Z,3.03
2019-02-21T20:26:47.138Z,2.73
2019-02-21T20:29:16.755Z,2.87
2019-02-21T20:31:46.347Z,2.77
2019-02-21T20:34:16.028Z,2.80
2019-02-21T20:36:51.148Z,2.93
2019-02-21T20:39:16.988Z,3.07
2019-02-21T20:41:46.648Z,2.80
2019-02-21T20:44:16.290Z,3.00
2019-02-21T20:46:45.949Z,2.63
2019-02-21T20:49:18.254Z,2.70
2019-02-21T20:54:37.137Z,2.60
2019-02-21T20:57:06.797Z,2.80
2019-02-21T20:59:36.433Z,2.97
2019-02-21T21:02:06.060Z,3.07
2019-02-21T21:04:35.648Z,3.10
2019-02-21T21:07:05.377Z,2.70
2019-02-21T21:09:35.055Z,2.90
2019-02-21T21:12:04.737Z,2.70
2019-02-21T21:14:34.457Z,2.97
2019-02-21T21:17:04.114Z,2.80
2019-02-21T21:19:33.719Z,3.10
2019-02-21T21:22:03.293Z,3.03
2019-02-21T21:24:32.914Z,2.67
2019-02-21T21:27:02.498Z,3.03
2019-02-21T21:29:32.098Z,2.57
2019-02-21T21:32:03.419Z,3.20
2019-02-21T21:34:33.076Z,3.17
2019-02-21T21:37:02.700Z,2.67
2019-02-21T21:39:32.386Z,3.30
2019-02-21T21:42:02.014Z,2.90
2019-02-21T21:44:31.597Z,2.80
2019-02-21T21:47:01.242Z,3.20
2019-02-21T21:49:30.907Z,3.00
2019-02-21T21:52:00.504Z,3.00
2019-02-21T21:54:30.236Z,3.03
2019-02-21T21:56:59.855Z,2.93
2019-02-21T21:59:29.465Z,3.47
2019-02-21T22:01:58.994Z,3.30
2019-02-21T22:04:28.669Z,2.87
2019-02-21T22:06:58.263Z,3.23
2019-02-21T22:09:27.865Z,3.07
2019-02-21T22:11:57.567Z,2.67
2019-02-21T22:14:27.152Z,3.33
2019-02-21T22:16:57.761Z,3.20
2019-02-21T22:19:27.361Z,3.23
2019-02-21T22:21:56.948Z,3.10
2019-02-21T22:24:26.552Z,3.03
2019-02-21T22:26:56.316Z,2.90
2019-02-21T22:29:27.533Z,2.87
2019-02-21T22:31:57.155Z,3.03
2019-02-21T22:34:26.727Z,3.20
2019-02-21T22:36:56.348Z,3.23
2019-02-21T22:39:26.039Z,3.40
2019-02-21T22:41:56.360Z,3.13
2019-02-21T22:44:25.961Z,3.13
2019-02-21T22:46:55.565Z,2.97
2019-02-21T22:49:25.262Z,2.67
2019-02-21T22:51:54.833Z,3.20
2019-02-21T22:54:24.485Z,2.87
2019-02-21T22:56:54.090Z,3.17
2019-02-21T22:59:24.739Z,3.30
2019-02-21T23:01:55.453Z,3.50
2019-02-21T23:05:12.719Z,3.47
2019-02-21T23:08:10.062Z,3.73
2019-02-21T23:10:39.741Z,4.00
2019-02-21T23:13:09.379Z,3.67
2019-02-21T23:15:38.995Z,4.07
2019-02-21T23:18:09.206Z,3.20
2019-02-21T23:20:38.834Z,2.93
2019-02-21T23:23:08.517Z,3.33
2019-02-21T23:25:38.188Z,3.33
2019-02-21T23:28:07.848Z,3.07
2019-02-21T23:30:37.436Z,2.90
2019-02-21T23:33:07.039Z,3.20
2019-02-21T23:35:36.661Z,3.17
2019-02-21T23:38:06.278Z,3.50
2019-02-21T23:40:37.028Z,3.20
2019-02-21T23:43:07.331Z,3.57
2019-02-21T23:45:36.939Z,3.63
2019-02-21T23:48:06.582Z,3.43
2019-02-21T23:50:36.194Z,3.47
2019-02-21T23:53:05.856Z,2.97
2019-02-21T23:55:36.520Z,3.63
2019-02-21T23:58:06.306Z,3.37
